Time;durP1;ratioP1;P1;durP2;ratioP2;P2;SDS_P1;SDS_P2;PMS_P1;PMS_P2;Temp;Humidity;BMP_temperature;BMP_pressure;BME280_temperature;BME280_humidity;BME280_pressure;Samples;Min_cycle;Max_cycle;Signal;HPM_P1;HPM_P2
2023/05/16 00:00:40;;;;;;;4.32;2.10;;;;;;;20.02;55.32;99417.19;4934742;29;20028;-70
2023/05/16 00:03:06;;;;;;;3.40;2.20;;;;;;;20.03;55.38;99422.41;4934716;29;20039;-70
2023/05/16 00:05:32;;;;;;;3.88;2.15;;;;;;;20.04;55.30;99425.91;4934270;29;20036;-70
2023/05/16 00:07:57;;;;;;;3.63;2.20;;;;;;;20.05;55.31;99412.56;4934843;29;20032;-70
2023/05/16 00:10:22;;;;;;;4.30;2.00;;;;;;;20.06;55.21;99411.63;4934775;29;20485;-69
2023/05/16 00:12:50;;;;;;;5.47;2.47;;;;;;;20.03;55.20;99402.97;4934525;29;20040;-69
2023/05/16 00:15:17;;;;;;;3.80;2.25;;;;;;;20.02;55.16;99401.28;4934475;29;20047;-70
2023/05/16 00:17:45;;;;;;;4.03;2.28;;;;;;;20.02;55.17;99407.44;4934558;29;20038;-69
2023/05/16 00:20:13;;;;;;;3.75;2.47;;;;;;;20.01;55.12;99400.44;4933995;29;20588;-69
2023/05/16 00:22:39;;;;;;;4.05;2.38;;;;;;;19.99;55.24;99400.53;4934333;29;20031;-70
2023/05/16 00:25:05;;;;;;;3.72;2.45;;;;;;;20.01;55.13;99402.22;4934581;29;20020;-70
2023/05/16 00:27:32;;;;;;;3.40;2.40;;;;;;;20.00;55.10;99401.38;4934165;29;20023;-70
2023/05/16 00:29:58;;;;;;;3.85;2.25;;;;;;;19.99;55.02;99394.38;4934424;29;20031;-69
2023/05/16 00:32:23;;;;;;;4.97;2.53;;;;;;;19.99;55.16;99386.44;4933216;29;20549;-69
2023/05/16 00:34:49;;;;;;;4.20;2.53;;;;;;;19.99;55.21;99382.00;4934052;29;20028;-70
2023/05/16 00:37:14;;;;;;;4.35;2.28;;;;;;;20.01;55.05;99397.81;4934395;29;20498;-70
2023/05/16 00:39:39;;;;;;;3.55;2.13;;;;;;;19.99;55.27;99391.72;4934289;29;20024;-68
2023/05/16 00:42:05;;;;;;;3.80;2.22;;;;;;;20.03;55.06;99387.97;4934216;29;20063;-70
2023/05/16 00:44:31;;;;;;;4.30;2.55;;;;;;;20.02;55.06;99386.25;4934215;29;20027;-69
2023/05/16 00:46:57;;;;;;;4.90;2.53;;;;;;;19.99;55.17;99378.47;4934157;29;20024;-69
2023/05/16 00:49:23;;;;;;;4.32;2.58;;;;;;;20.00;54.82;99374.88;4916787;29;20031;-69
2023/05/16 00:51:48;;;;;;;5.78;2.85;;;;;;;19.98;55.02;99375.00;4934143;29;20047;-70
2023/05/16 00:54:14;;;;;;;4.05;2.30;;;;;;;19.96;54.88;99370.72;4933877;28;20569;-70
2023/05/16 00:56:40;;;;;;;4.22;2.60;;;;;;;19.96;54.92;99386.63;4916786;29;20398;-69
2023/05/16 00:59:05;;;;;;;3.80;2.45;;;;;;;19.97;55.02;99385.66;4916842;29;20492;-69
2023/05/16 01:01:32;;;;;;;5.25;2.35;;;;;;;19.97;55.03;99372.44;4934025;29;20036;-71
2023/05/16 01:03:59;;;;;;;5.10;2.95;;;;;;;19.98;54.85;99368.84;4933529;29;20071;-70
2023/05/16 01:06:25;;;;;;;5.30;2.65;;;;;;;19.95;54.63;99371.66;4933590;28;20046;-70
2023/05/16 01:08:51;;;;;;;5.00;2.50;;;;;;;19.92;55.12;99374.44;4933970;29;20024;-70
2023/05/16 01:11:25;;;;;;;4.35;2.28;;;;;;;19.92;55.12;99374.44;4933629;29;20517;-69
2023/05/16 01:14:12;;;;;;;3.72;2.03;;;;;;;19.91;54.97;99367.47;4933801;28;20027;-69
2023/05/16 01:16:53;;;;;;;4.28;2.40;;;;;;;19.89;54.85;99366.72;4916608;29;20370;-70
2023/05/16 01:19:41;;;;;;;3.90;2.30;;;;;;;19.86;55.13;99371.22;4933487;29;20035;-70
2023/05/16 01:22:30;;;;;;;3.58;2.25;;;;;;;19.88;55.09;99368.50;4933699;29;20032;-70
2023/05/16 01:25:16;;;;;;;5.28;2.30;;;;;;;19.89;54.88;99370.19;4933602;29;20020;-70
2023/05/16 01:27:44;;;;;;;5.30;2.30;;;;;;;19.90;54.80;99368.41;4933495;29;20027;-69
2023/05/16 01:30:18;;;;;;;4.25;2.53;;;;;;;19.88;54.81;99367.63;4933357;29;20115;-70
2023/05/16 01:32:43;;;;;;;4.72;2.72;;;;;;;19.86;54.85;99368.56;4933168;29;20553;-70
2023/05/16 01:35:13;;;;;;;3.70;2.20;;;;;;;19.84;54.92;99361.66;4933244;29;20107;-70
2023/05/16 01:38:16;;;;;;;4.78;1.95;;;;;;;19.83;54.97;99366.13;4933452;29;20050;-69
2023/05/16 01:40:54;;;;;;;3.83;2.35;;;;;;;19.85;54.90;99368.66;4941860;28;20048;-70
2023/05/16 01:43:34;;;;;;;4.88;2.40;;;;;;;19.85;55.00;99364.22;4932887;29;20051;-70
2023/05/16 01:46:13;;;;;;;5.55;2.35;;;;;;;19.85;54.75;99361.56;4932758;29;20032;-70
2023/05/16 01:48:54;;;;;;;4.05;2.10;;;;;;;19.85;54.85;99380.09;4933283;29;20027;-70
2023/05/16 01:51:23;;;;;;;4.68;2.50;;;;;;;19.85;54.70;99366.88;4915950;29;20035;-70
2023/05/16 01:53:49;;;;;;;3.53;2.10;;;;;;;19.86;54.77;99371.22;4914164;29;20510;-70
2023/05/16 01:56:15;;;;;;;4.07;2.25;;;;;;;19.85;54.97;99371.28;4914082;29;20072;-69
2023/05/16 01:58:42;;;;;;;3.83;2.40;;;;;;;19.85;54.72;99372.16;4914127;29;20091;-69
2023/05/16 02:01:08;;;;;;;3.85;2.10;;;;;;;19.83;54.79;99366.13;4913738;28;20040;-70
2023/05/16 02:03:34;;;;;;;4.47;2.65;;;;;;;19.82;54.96;99368.84;4913892;29;20087;-70
2023/05/16 02:06:00;;;;;;;3.65;2.30;;;;;;;19.83;54.83;99366.13;4913868;29;20083;-69
2023/05/16 02:08:27;;;;;;;3.25;2.00;;;;;;;19.81;54.89;99362.69;4914046;29;20051;-71
2023/05/16 02:10:53;;;;;;;4.75;2.30;;;;;;;19.83;54.66;99355.53;4913647;29;20040;-70
2023/05/16 02:13:18;;;;;;;3.70;2.42;;;;;;;19.83;54.74;99355.53;4913773;29;20089;-70
2023/05/16 02:15:44;;;;;;;3.05;1.90;;;;;;;19.83;54.85;99350.22;4913587;29;20063;-69
2023/05/16 02:18:10;;;;;;;3.97;2.60;;;;;;;19.82;54.82;99353.78;4913638;29;20401;-70
2023/05/16 02:20:35;;;;;;;4.53;2.40;;;;;;;19.81;54.73;99352.09;4913865;29;20032;-70
2023/05/16 02:23:02;;;;;;;3.90;2.33;;;;;;;19.79;54.78;99353.97;4913579;29;20449;-68
2023/05/16 02:25:28;;;;;;;4.32;2.47;;;;;;;19.81;54.61;99357.38;4913412;29;20474;-70
2023/05/16 02:27:53;;;;;;;3.90;2.10;;;;;;;19.79;54.84;99347.81;4913755;29;20104;-69
2023/05/16 02:30:18;;;;;;;4.10;2.25;;;;;;;19.78;54.63;99347.00;4913390;29;20032;-70
2023/05/16 02:32:44;;;;;;;4.05;2.35;;;;;;;19.77;54.97;99347.94;4896736;29;20116;-69
2023/05/16 02:35:10;;;;;;;4.22;2.63;;;;;;;19.73;55.00;99352.53;4913473;29;20031;-70
2023/05/16 02:37:36;;;;;;;4.32;2.25;;;;;;;19.71;54.94;99356.22;4896585;29;20020;-70
2023/05/16 02:40:04;;;;;;;3.88;2.30;;;;;;;19.73;55.00;99349.03;4896546;29;20024;-70
2023/05/16 02:42:30;;;;;;;4.28;2.42;;;;;;;19.72;54.85;99352.63;4913634;28;20020;-70
2023/05/16 02:44:56;;;;;;;4.18;2.15;;;;;;;19.71;54.86;99356.22;4913189;29;20031;-70
2023/05/16 02:47:22;;;;;;;5.10;2.40;;;;;;;19.68;54.92;99351.09;4913272;29;20024;-70
2023/05/16 02:49:47;;;;;;;4.10;2.35;;;;;;;19.71;54.77;99350.94;4918568;29;20078;-70
2023/05/16 02:52:13;;;;;;;3.85;2.28;;;;;;;19.70;54.76;99351.84;4932278;29;20089;-70
2023/05/16 02:54:38;;;;;;;3.28;2.03;;;;;;;19.70;54.61;99365.09;4932224;28;20039;-70
2023/05/16 02:57:04;;;;;;;3.28;1.90;;;;;;;19.71;54.86;99356.22;4931338;29;20031;-69
2023/05/16 02:59:29;;;;;;;4.93;2.38;;;;;;;19.69;54.91;99352.81;4931600;29;20026;-69
2023/05/16 03:01:55;;;;;;;5.28;2.25;;;;;;;19.68;54.62;99348.44;4932192;29;20066;-69
2023/05/16 03:04:20;;;;;;;4.82;2.45;;;;;;;19.70;54.75;99351.84;4932181;29;20077;-68
2023/05/16 03:06:46;;;;;;;3.53;2.35;;;;;;;19.69;54.64;99348.38;4932054;29;20146;-69
2023/05/16 03:09:11;;;;;;;4.32;2.35;;;;;;;19.68;54.88;99343.16;4915157;29;20544;-70
2023/05/16 03:11:37;;;;;;;3.58;2.20;;;;;;;19.65;54.81;99345.97;4932083;29;20094;-70
2023/05/16 03:14:02;;;;;;;3.33;2.28;;;;;;;19.66;54.66;99347.69;4931663;29;20549;-69
2023/05/16 03:16:27;;;;;;;5.32;2.40;;;;;;;19.64;55.00;99346.91;4932023;29;20043;-70
2023/05/16 03:18:53;;;;;;;3.95;2.20;;;;;;;19.65;54.73;99345.97;4931743;29;20478;-70
2023/05/16 03:21:18;;;;;;;3.13;1.90;;;;;;;19.63;54.82;99339.91;4931963;28;20024;-70
2023/05/16 03:23:44;;;;;;;4.45;2.17;;;;;;;19.62;54.95;99340.88;4932110;29;20020;-70
2023/05/16 03:26:09;;;;;;;4.35;2.03;;;;;;;19.63;54.64;99335.50;4931615;29;20492;-70
2023/05/16 03:28:36;;;;;;;4.63;2.30;;;;;;;19.62;54.88;99331.16;4931397;29;20501;-69
2023/05/16 03:31:01;;;;;;;4.60;2.35;;;;;;;19.61;54.86;99339.16;4931963;29;20566;-70
2023/05/16 03:33:26;;;;;;;4.20;1.98;;;;;;;19.59;55.08;99326.88;4931748;29;20102;-69
2023/05/16 03:35:52;;;;;;;4.60;2.30;;;;;;;19.61;54.97;99328.56;4931619;29;20035;-70
2023/05/16 03:38:17;;;;;;;3.70;2.17;;;;;;;19.63;54.80;99324.03;4931782;29;20032;-70
2023/05/16 03:40:43;;;;;;;3.88;1.90;;;;;;;19.63;54.63;99326.69;4931703;29;20066;-69
2023/05/16 03:43:09;;;;;;;3.53;2.45;;;;;;;19.62;54.61;99330.28;4931424;29;20032;-70
2023/05/16 03:45:34;;;;;;;3.15;1.88;;;;;;;19.63;54.80;99331.97;4931546;29;20036;-69
2023/05/16 03:47:59;;;;;;;3.33;1.80;;;;;;;19.64;54.54;99336.31;4931774;29;20032;-70
2023/05/16 03:50:25;;;;;;;3.40;2.13;;;;;;;19.63;54.67;99331.97;4931697;29;20036;-69
2023/05/16 03:52:52;;;;;;;3.30;1.92;;;;;;;19.63;54.63;99342.56;4931423;29;20046;-70
2023/05/16 03:55:18;;;;;;;3.40;2.05;;;;;;;19.62;54.82;99332.94;4931231;28;20058;-70
2023/05/16 03:57:45;;;;;;;3.50;1.88;;;;;;;19.58;54.62;99330.44;4931238;29;20028;-69
2023/05/16 04:00:11;;;;;;;3.22;1.90;;;;;;;19.57;54.72;99333.19;4931441;29;20027;-70
2023/05/16 04:02:39;;;;;;;4.05;2.17;;;;;;;19.57;54.86;99334.03;4931597;29;20032;-69
2023/05/16 04:05:09;;;;;;;3.40;1.77;;;;;;;19.56;54.77;99329.69;4931466;29;20058;-70
2023/05/16 04:07:34;;;;;;;3.08;1.90;;;;;;;19.56;54.60;99336.75;4933230;29;20437;-70
2023/05/16 04:10:00;;;;;;;3.67;2.45;;;;;;;19.53;54.67;99335.16;4934704;29;20027;-70
2023/05/16 04:12:26;;;;;;;3.47;2.03;;;;;;;19.52;54.65;99336.09;4933078;29;20035;-70
2023/05/16 04:14:51;;;;;;;2.72;1.85;;;;;;;19.52;54.63;99340.53;4934408;29;20536;-69
2023/05/16 04:17:16;;;;;;;3.75;2.28;;;;;;;19.51;54.97;99342.31;4934417;29;20038;-69
2023/05/16 04:19:42;;;;;;;3.10;1.90;;;;;;;19.51;54.77;99344.13;4934684;29;20019;-70
2023/05/16 04:22:07;;;;;;;2.97;1.98;;;;;;;19.51;54.69;99341.50;4934462;29;20485;-69
2023/05/16 04:24:33;;;;;;;5.47;2.20;;;;;;;19.49;54.92;99351.28;4934253;29;20409;-70
2023/05/16 04:26:58;;;;;;;3.83;2.08;;;;;;;19.51;54.71;99341.50;4934194;29;20032;-69
2023/05/16 04:29:23;;;;;;;2.90;1.83;;;;;;;19.50;54.78;99343.28;4934220;29;20434;-69
2023/05/16 04:31:49;;;;;;;3.47;2.00;;;;;;;19.49;54.95;99341.56;4934190;29;20050;-70
2023/05/16 04:34:15;;;;;;;3.15;1.90;;;;;;;19.46;54.70;99339.09;4934327;29;20467;-69
2023/05/16 04:36:40;;;;;;;3.13;1.65;;;;;;;19.45;54.79;99346.19;4934058;28;20470;-69
2023/05/16 04:39:06;;;;;;;3.15;1.80;;;;;;;19.46;54.63;99352.31;4934520;29;20043;-70
2023/05/16 04:41:32;;;;;;;3.13;1.90;;;;;;;19.45;55.04;99356.78;4933823;29;20055;-70
2023/05/16 04:44:00;;;;;;;2.80;1.65;;;;;;;19.45;54.71;99355.91;4934166;29;20036;-70
2023/05/16 04:46:25;;;;;;;2.58;1.63;;;;;;;19.45;54.65;99355.91;4934310;29;20406;-70
2023/05/16 04:48:51;;;;;;;3.97;1.80;;;;;;;19.45;54.67;99355.91;4933973;29;20054;-70
2023/05/16 04:51:16;;;;;;;2.70;1.77;;;;;;;19.46;54.94;99357.59;4934009;29;20038;-69
2023/05/16 04:53:42;;;;;;;3.25;1.77;;;;;;;19.45;55.00;99358.56;4934095;29;20500;-69
2023/05/16 04:56:07;;;;;;;4.60;2.05;;;;;;;19.43;54.93;99353.34;4933407;28;20062;-69
2023/05/16 04:58:32;;;;;;;2.67;1.63;;;;;;;19.42;54.93;99356.09;4933891;29;20470;-69
2023/05/16 05:00:58;;;;;;;4.25;2.05;;;;;;;19.43;55.01;99363.91;4934184;29;20477;-69
2023/05/16 05:03:24;;;;;;;3.90;2.00;;;;;;;19.44;54.75;99360.34;4934014;29;20031;-70
2023/05/16 05:05:49;;;;;;;4.07;2.25;;;;;;;19.44;54.82;99364.78;4933850;29;20558;-71
2023/05/16 05:08:15;;;;;;;3.83;2.22;;;;;;;19.43;55.07;99355.16;4933781;29;20425;-69
2023/05/16 05:10:41;;;;;;;3.38;1.98;;;;;;;19.40;54.97;99358.81;4933291;29;20031;-69
2023/05/16 05:13:06;;;;;;;3.55;2.20;;;;;;;19.41;54.94;99360.50;4933837;29;20032;-70
2023/05/16 05:15:31;;;;;;;3.17;1.67;;;;;;;19.41;54.96;99364.94;4933762;29;20020;-70
2023/05/16 05:17:57;;;;;;;2.83;1.75;;;;;;;19.41;54.78;99355.22;4933445;29;20020;-69
2023/05/16 05:20:22;;;;;;;3.20;1.75;;;;;;;19.41;54.84;99354.34;4933183;29;20032;-70
2023/05/16 05:22:48;;;;;;;3.45;2.00;;;;;;;19.41;54.96;99349.94;4933800;29;20036;-70
2023/05/16 05:25:14;;;;;;;2.65;1.67;;;;;;;19.43;54.91;99363.09;4933311;29;20055;-70
2023/05/16 05:27:39;;;;;;;2.78;1.80;;;;;;;19.41;54.94;99365.81;4933698;29;20370;-70
2023/05/16 05:30:05;;;;;;;3.15;2.05;;;;;;;19.41;54.95;99360.50;4933507;29;20478;-70
2023/05/16 05:32:31;;;;;;;2.67;1.92;;;;;;;19.41;54.80;99363.16;4933468;29;20490;-70
2023/05/16 05:34:56;;;;;;;4.38;1.98;;;;;;;19.42;55.00;99366.69;4933387;29;20102;-70
2023/05/16 05:37:22;;;;;;;2.80;1.70;;;;;;;19.42;55.01;99371.97;4933498;28;20122;-70
2023/05/16 05:39:47;;;;;;;3.97;1.75;;;;;;;19.40;55.02;99363.25;4933117;29;20290;-70
2023/05/16 05:42:13;;;;;;;3.45;1.90;;;;;;;19.40;55.18;99377.34;4933202;29;20023;-69
2023/05/16 05:44:38;;;;;;;4.45;1.75;;;;;;;19.39;54.90;99373.00;4933460;29;20050;-70
2023/05/16 05:47:05;;;;;;;3.33;1.95;;;;;;;19.39;54.88;99378.28;4933234;29;20544;-68
2023/05/16 05:49:31;;;;;;;3.15;1.80;;;;;;;19.40;55.09;99373.81;4933118;29;20074;-70
2023/05/16 05:51:56;;;;;;;4.70;2.10;;;;;;;19.39;55.03;99380.06;4933116;29;20063;-70
2023/05/16 05:54:22;;;;;;;3.13;2.05;;;;;;;19.40;55.05;99384.41;4932717;28;20084;-70
2023/05/16 05:56:47;;;;;;;2.63;1.50;;;;;;;19.38;55.00;99386.31;4933062;29;20157;-70
2023/05/16 05:59:13;;;;;;;3.13;1.77;;;;;;;19.39;54.96;99386.22;4926133;29;20024;-70
2023/05/16 06:01:38;;;;;;;3.25;1.70;;;;;;;19.38;55.11;99392.47;4914112;29;20106;-70
2023/05/16 06:04:04;;;;;;;3.63;1.92;;;;;;;19.38;55.02;99386.31;4914122;29;20036;-69
2023/05/16 06:06:30;;;;;;;3.22;1.85;;;;;;;19.37;55.00;99385.44;4913895;29;20039;-69
2023/05/16 06:08:56;;;;;;;4.90;2.00;;;;;;;19.37;55.01;99392.53;4913793;29;20032;-70
2023/05/16 06:11:22;;;;;;;3.15;1.73;;;;;;;19.37;54.97;99384.59;4913767;29;20453;-70
2023/05/16 06:13:47;;;;;;;3.35;1.80;;;;;;;19.35;55.17;99391.75;4913918;29;20039;-70
2023/05/16 06:16:13;;;;;;;3.13;1.60;;;;;;;19.35;55.07;99389.09;4913881;29;20035;-70
2023/05/16 06:18:38;;;;;;;3.88;1.70;;;;;;;19.35;54.75;99389.09;4913899;29;20043;-69
2023/05/16 06:21:04;;;;;;;3.53;1.95;;;;;;;19.34;54.94;99390.91;4913898;29;20032;-70
2023/05/16 06:23:30;;;;;;;2.28;1.60;;;;;;;19.34;54.99;99387.41;4913451;29;20036;-70
2023/05/16 06:25:56;;;;;;;2.97;1.70;;;;;;;19.35;54.94;99386.44;4913750;29;20034;-70
2023/05/16 06:28:22;;;;;;;3.10;1.73;;;;;;;19.34;55.10;99390.91;4913804;29;20052;-70
2023/05/16 06:30:50;;;;;;;2.20;1.40;;;;;;;19.35;54.94;99387.31;4913640;29;20041;-70
2023/05/16 06:33:16;;;;;;;3.42;2.15;;;;;;;19.32;55.06;99377.75;4913799;29;20106;-70
2023/05/16 06:35:41;;;;;;;3.15;1.60;;;;;;;19.31;55.11;99375.19;4913626;29;20060;-70
2023/05/16 06:38:07;;;;;;;2.88;1.63;;;;;;;19.32;54.83;99377.75;4913272;29;20039;-68
2023/05/16 06:40:32;;;;;;;3.08;1.88;;;;;;;19.32;54.93;99385.69;4913661;29;20035;-70
2023/05/16 06:42:57;;;;;;;3.65;1.95;;;;;;;19.30;55.20;99377.00;4913582;29;20552;-69
2023/05/16 06:45:23;;;;;;;2.05;1.48;;;;;;;19.30;55.05;99384.94;4913504;29;20036;-70
2023/05/16 06:47:48;;;;;;;3.05;1.55;;;;;;;19.31;54.88;99381.34;4913549;29;20058;-69
2023/05/16 06:50:14;;;;;;;3.30;2.38;;;;;;;19.31;55.15;99380.47;4921846;29;20031;-69
2023/05/16 06:52:40;;;;;;;2.47;1.55;;;;;;;19.32;54.94;99377.75;4914808;29;20481;-70
2023/05/16 06:55:06;;;;;;;3.63;1.58;;;;;;;19.32;54.90;99383.06;4932241;28;20540;-69
2023/05/16 06:57:32;;;;;;;3.42;1.60;;;;;;;19.32;54.96;99391.00;4932257;29;20042;-69
2023/05/16 06:59:57;;;;;;;2.17;1.45;;;;;;;19.32;55.01;99393.63;4932251;29;20027;-69
2023/05/16 07:02:22;;;;;;;3.90;1.95;;;;;;;19.30;55.01;99400.81;4932267;29;20024;-70
2023/05/16 07:04:48;;;;;;;2.67;1.73;;;;;;;19.31;54.80;99407.81;4931929;29;20458;-69
2023/05/16 07:07:14;;;;;;;2.92;1.67;;;;;;;19.30;55.16;99400.81;4914808;29;20122;-69
2023/05/16 07:09:39;;;;;;;2.85;1.90;;;;;;;19.31;55.04;99407.81;4932128;29;20031;-70
2023/05/16 07:12:05;;;;;;;2.85;1.80;;;;;;;19.30;54.95;99410.53;4931990;29;20111;-69
2023/05/16 07:14:30;;;;;;;3.63;1.85;;;;;;;19.29;55.27;99420.28;4932191;29;20477;-70
2023/05/16 07:16:56;;;;;;;4.53;2.00;;;;;;;19.28;55.21;99407.97;4932067;29;20448;-70
2023/05/16 07:19:21;;;;;;;3.97;2.15;;;;;;;19.27;54.94;99411.53;4932153;29;20031;-70
2023/05/16 07:21:47;;;;;;;6.07;2.40;;;;;;;19.27;55.25;99410.72;4931871;29;20035;-69
2023/05/16 07:24:12;;;;;;;6.25;2.42;;;;;;;19.27;54.97;99408.91;4914734;29;20024;-70
2023/05/16 07:26:37;;;;;;;8.55;3.83;;;;;;;19.27;54.92;99416.84;4931801;29;20406;-70
2023/05/16 07:29:03;;;;;;;9.45;2.95;;;;;;;19.29;55.01;99407.03;4914951;29;20032;-69
2023/05/16 07:31:29;;;;;;;7.03;2.70;;;;;;;19.30;55.02;99413.16;4914687;29;20040;-69
2023/05/16 07:33:55;;;;;;;5.60;2.78;;;;;;;19.31;55.17;99413.09;4931881;29;20059;-68
2023/05/16 07:36:21;;;;;;;5.55;2.50;;;;;;;19.30;55.19;99423.75;4931476;29;20106;-69
2023/05/16 07:38:46;;;;;;;6.45;2.78;;;;;;;19.32;55.16;99425.38;4931885;29;20039;-69
2023/05/16 07:41:12;;;;;;;6.68;2.25;;;;;;;19.29;55.38;99433.50;4931739;29;20106;-70
2023/05/16 07:43:37;;;;;;;6.35;2.30;;;;;;;19.27;55.42;99427.41;4934970;29;20038;-69
2023/05/16 07:46:04;;;;;;;15.55;4.07;;;;;;;19.32;55.24;99430.66;4935044;29;20031;-70
2023/05/16 07:48:30;;;;;;;27.95;6.65;;;;;;;19.29;55.36;99438.78;4934690;29;20110;-70
2023/05/16 07:50:55;;;;;;;25.70;6.60;;;;;;;19.31;55.36;99431.63;4934945;29;20497;-69
2023/05/16 07:53:21;;;;;;;34.28;6.65;;;;;;;19.34;55.35;99432.38;4934984;29;20509;-70
2023/05/16 07:55:47;;;;;;;26.15;6.13;;;;;;;19.32;55.25;99435.97;4934628;28;20052;-68
2023/05/16 07:58:13;;;;;;;19.20;5.03;;;;;;;19.32;55.20;99430.66;4934747;29;20110;-69
2023/05/16 08:00:39;;;;;;;19.27;5.20;;;;;;;19.31;55.27;99444.84;4934871;29;20039;-70
2023/05/16 08:03:05;;;;;;;20.58;5.60;;;;;;;19.31;55.58;99439.56;4934568;29;20036;-70
2023/05/16 08:05:30;;;;;;;18.98;7.05;;;;;;;19.32;55.41;99441.25;4934713;29;20097;-69
2023/05/16 08:07:56;;;;;;;20.25;6.32;;;;;;;19.32;55.11;99441.25;4934423;28;20481;-69
2023/05/16 08:10:22;;;;;;;25.55;6.68;;;;;;;19.31;55.35;99436.91;4934727;29;20035;-69
2023/05/16 08:12:48;;;;;;;24.42;5.70;;;;;;;19.31;55.29;99438.69;4934445;29;20032;-69
2023/05/16 08:15:13;;;;;;;17.13;5.75;;;;;;;19.33;55.38;99436.84;4917435;28;20549;-70
2023/05/16 08:17:39;;;;;;;21.85;8.10;;;;;;;19.37;55.43;99448.09;4917230;29;20082;-69
2023/05/16 08:20:05;;;;;;;18.17;5.90;;;;;;;19.32;55.50;99435.09;4934619;29;20110;-68
2023/05/16 08:22:31;;;;;;;19.00;5.50;;;;;;;19.37;55.31;99442.81;4934615;29;20040;-71
2023/05/16 08:24:56;;;;;;;21.85;6.65;;;;;;;19.35;55.77;99439.38;4934420;29;20035;-69
2023/05/16 08:27:23;;;;;;;16.42;5.93;;;;;;;19.36;55.61;99446.41;4934500;29;20043;-70
2023/05/16 08:29:48;;;;;;;20.20;6.97;;;;;;;19.35;56.19;99439.38;4934253;29;20036;-70
2023/05/16 08:32:14;;;;;;;17.25;6.03;;;;;;;19.35;56.08;99436.72;4933969;29;20039;-70
2023/05/16 08:34:40;;;;;;;22.00;6.72;;;;;;;19.34;56.38;99437.66;4934126;29;20556;-68
2023/05/16 08:37:05;;;;;;;14.80;5.13;;;;;;;19.35;56.66;99436.72;4934308;29;20086;-69
2023/05/16 08:39:31;;;;;;;43.88;18.15;;;;;;;19.35;56.57;99437.59;4934259;29;20123;-70
2023/05/16 08:41:57;;;;;;;38.88;14.25;;;;;;;19.37;56.55;99426.94;4934456;29;20039;-68
2023/05/16 08:44:23;;;;;;;22.15;8.90;;;;;;;19.40;56.43;99432.03;4934350;29;20397;-70
2023/05/16 08:46:52;;;;;;;21.95;6.60;;;;;;;19.38;56.58;99428.63;4933937;29;20036;-68
2023/05/16 08:49:19;;;;;;;15.90;5.97;;;;;;;19.37;56.99;99437.50;4939521;28;20035;-70
2023/05/16 08:51:46;;;;;;;15.38;5.43;;;;;;;19.36;57.19;99427.88;4934084;29;20035;-69
2023/05/16 08:54:13;;;;;;;11.73;4.40;;;;;;;19.39;56.62;99427.69;4932907;28;20063;-70
2023/05/16 08:56:41;;;;;;;12.43;4.50;;;;;;;19.42;56.82;99433.66;4933923;29;20046;-69
2023/05/16 08:59:06;;;;;;;11.73;4.47;;;;;;;19.42;56.72;99435.47;4934102;29;20481;-69
2023/05/16 09:01:33;;;;;;;11.25;3.90;;;;;;;19.42;56.89;99431.00;4933713;29;20032;-71
2023/05/16 09:03:59;;;;;;;10.65;4.32;;;;;;;19.43;56.59;99443.31;4933859;29;20114;-69
2023/05/16 09:06:25;;;;;;;8.93;4.05;;;;;;;19.43;57.13;99442.47;4933575;29;20046;-70
2023/05/16 09:08:52;;;;;;;10.75;4.22;;;;;;;19.44;56.86;99449.47;4916851;29;20125;-68
2023/05/16 09:11:18;;;;;;;8.45;4.22;;;;;;;19.42;56.78;99443.41;4933690;29;20034;-69
2023/05/16 09:13:43;;;;;;;9.82;3.80;;;;;;;19.44;56.47;99444.16;4916843;28;20414;-70
2023/05/16 09:16:13;;;;;;;9.90;3.90;;;;;;;19.43;56.59;99447.75;4933273;29;20027;-69
2023/05/16 09:18:41;;;;;;;8.93;3.83;;;;;;;19.43;56.80;99442.47;4933807;29;20051;-69
2023/05/16 09:21:09;;;;;;;11.55;3.55;;;;;;;19.44;56.53;99450.34;4933726;29;20040;-69
2023/05/16 09:23:35;;;;;;;7.55;3.00;;;;;;;19.43;56.57;99450.41;4933694;29;20568;-70
2023/05/16 09:26:01;;;;;;;7.63;2.67;;;;;;;19.43;56.60;99443.31;4933574;29;20060;-70
2023/05/16 09:28:26;;;;;;;9.20;3.33;;;;;;;19.42;56.48;99441.59;4931871;29;20066;-71
2023/05/16 09:30:58;;;;;;;8.65;3.60;;;;;;;19.44;56.56;99444.16;4933050;29;20063;-70
2023/05/16 09:33:26;;;;;;;6.30;3.38;;;;;;;19.39;56.68;99449.72;4933286;29;20118;-71
2023/05/16 09:35:59;;;;;;;6.38;2.97;;;;;;;19.41;56.68;99446.97;4933181;29;20581;-70
2023/05/16 09:38:26;;;;;;;7.53;3.25;;;;;;;19.43;56.53;99453.06;4933581;29;20486;-71
2023/05/16 09:40:52;;;;;;;5.68;2.67;;;;;;;19.42;56.06;99446.91;4933582;29;20445;-80
2023/05/16 09:43:20;;;;;;;6.15;2.70;;;;;;;19.44;56.17;99449.47;4933280;29;20031;-73
2023/05/16 09:45:47;;;;;;;6.65;2.65;;;;;;;19.41;56.29;99449.63;4932942;29;20047;-72
2023/05/16 09:48:14;;;;;;;6.30;3.15;;;;;;;19.40;56.27;99447.91;4933138;29;20485;-74
2023/05/16 09:50:41;;;;;;;5.15;2.47;;;;;;;19.38;55.95;99449.81;4933295;29;20114;-76
2023/05/16 09:53:07;;;;;;;4.90;2.22;;;;;;;19.40;56.21;99453.22;4933165;29;20027;-76
2023/05/16 09:55:33;;;;;;;5.80;2.40;;;;;;;19.40;56.08;99447.91;4933154;28;20056;-76
2023/05/16 09:57:59;;;;;;;5.43;2.03;;;;;;;19.39;56.16;99451.50;4933047;29;20035;-76
2023/05/16 10:00:32;;;;;;;6.30;2.70;;;;;;;19.38;56.27;99465.69;4932876;29;20046;-76
2023/05/16 10:02:59;;;;;;;123.40;68.10;;;;;;;19.39;56.22;99440.91;4933271;29;20070;-75
2023/05/16 10:05:28;;;;;;;34.53;14.13;;;;;;;19.40;56.63;99448.78;4933166;29;20080;-76
2023/05/16 10:07:57;;;;;;;30.17;11.00;;;;;;;19.41;56.33;99446.97;4933252;29;20099;-77
2023/05/16 10:10:23;;;;;;;17.30;6.68;;;;;;;19.45;56.39;99435.28;4915886;29;20031;-76
2023/05/16 10:12:50;;;;;;;17.50;4.82;;;;;;;19.42;56.26;99452.19;4932861;28;20032;-77
2023/05/16 10:15:16;;;;;;;17.00;3.92;;;;;;;19.44;56.12;99450.34;4932515;29;20027;-76
2023/05/16 10:17:44;;;;;;;13.10;3.80;;;;;;;19.45;56.10;99461.75;4915879;29;20135;-76
2023/05/16 10:20:11;;;;;;;12.45;3.80;;;;;;;19.45;56.02;99456.47;4932938;29;20432;-77
2023/05/16 10:22:41;;;;;;;11.20;3.92;;;;;;;19.47;56.25;99459.03;4932986;29;20026;-76
2023/05/16 10:25:24;;;;;;;13.52;3.88;;;;;;;19.47;56.07;99459.91;4932717;29;20039;-75
2023/05/16 10:27:51;;;;;;;9.77;3.08;;;;;;;19.48;56.11;99456.31;4915811;29;20489;-78
2023/05/16 10:30:17;;;;;;;8.95;3.50;;;;;;;19.45;56.11;99452.03;4932420;28;20473;-78
2023/05/16 10:32:45;;;;;;;9.52;3.10;;;;;;;19.45;56.14;99456.47;4932654;29;20040;-77
2023/05/16 10:35:10;;;;;;;6.90;3.20;;;;;;;19.47;56.06;99464.31;4932603;29;20028;-76
2023/05/16 10:37:37;;;;;;;9.13;3.50;;;;;;;19.46;56.20;99458.16;4932639;29;20612;-76
2023/05/16 10:40:05;;;;;;;8.00;3.20;;;;;;;19.46;56.06;99460.81;4932594;29;20028;-76
2023/05/16 10:42:33;;;;;;;10.65;3.28;;;;;;;19.46;56.17;99458.16;4932309;29;20039;-77
2023/05/16 10:45:15;;;;;;;9.60;4.22;;;;;;;19.47;55.99;99453.72;4915433;29;20043;-77
2023/05/16 10:47:52;;;;;;;9.27;3.17;;;;;;;19.47;56.03;99451.97;4932469;29;20105;-76
2023/05/16 10:50:37;;;;;;;8.13;3.10;;;;;;;19.50;55.93;99435.03;4932141;29;20039;-77
2023/05/16 10:53:17;;;;;;;9.32;2.92;;;;;;;19.48;55.99;99437.78;4932237;29;20036;-76
2023/05/16 10:55:57;;;;;;;8.00;3.25;;;;;;;19.49;55.96;99444.78;4932218;28;20051;-76
2023/05/16 10:58:44;;;;;;;8.23;3.15;;;;;;;19.48;55.80;99435.13;4932056;29;20475;-76
2023/05/16 11:01:28;;;;;;;8.35;2.67;;;;;;;19.49;55.96;99442.13;4932286;29;20405;-76
2023/05/16 11:03:59;;;;;;;7.32;3.10;;;;;;;19.49;55.94;99436.84;4932422;29;20111;-76
2023/05/16 11:06:39;;;;;;;7.68;2.90;;;;;;;19.50;55.74;99442.97;4932266;28;20038;-77
2023/05/16 11:11:52;;;;;;;7.97;3.15;;;;;;;19.49;55.74;99455.38;4931927;29;20452;-77
2023/05/16 11:14:33;;;;;;;7.72;3.30;;;;;;;19.50;56.03;99458.84;4932155;29;20435;-77
2023/05/16 11:17:07;;;;;;;9.68;3.25;;;;;;;19.51;55.66;99460.59;4931334;29;20027;-77
2023/05/16 11:19:57;;;;;;;7.93;3.33;;;;;;;19.51;55.72;99450.81;4931939;29;20601;-76
2023/05/16 11:22:31;;;;;;;10.27;3.35;;;;;;;19.51;55.68;99450.81;4932180;29;20069;-76
2023/05/16 11:24:59;;;;;;;7.53;3.00;;;;;;;19.50;55.97;99443.84;4932158;29;20107;-76
2023/05/16 11:27:27;;;;;;;5.93;2.83;;;;;;;19.50;55.82;99438.53;4931823;29;20030;-76
2023/05/16 11:29:55;;;;;;;8.15;3.40;;;;;;;19.52;55.65;99441.94;4931785;29;20055;-76
2023/05/16 11:32:21;;;;;;;10.30;3.72;;;;;;;19.52;55.84;99439.28;4932169;29;20028;-76
2023/05/16 11:34:47;;;;;;;8.13;2.83;;;;;;;19.53;55.87;99437.53;4931668;29;20398;-77